createdAt,value
2022-11-09T00:01:03.569Z,8.10
2022-11-09T00:03:31.783Z,8.60
2022-11-09T00:06:00.634Z,9.43
2022-11-09T00:08:28.986Z,8.95
2022-11-09T00:11:03.351Z,9.85
2022-11-09T00:13:30.963Z,8.52
2022-11-09T00:16:00.222Z,9.07
2022-11-09T00:18:28.413Z,10.52
2022-11-09T00:20:56.250Z,10.15
2022-11-09T00:23:24.012Z,10.63
2022-11-09T00:25:51.545Z,10.77
2022-11-09T00:28:19.267Z,9.05
2022-11-09T00:30:48.193Z,8.60
2022-11-09T00:33:17.380Z,9.80
2022-11-09T00:35:45.222Z,10.10
2022-11-09T00:38:12.791Z,9.68
2022-11-09T00:40:40.408Z,8.38
2022-11-09T00:43:08.063Z,9.40
2022-11-09T00:45:36.085Z,8.27
2022-11-09T00:48:04.050Z,10.02
2022-11-09T00:50:31.668Z,9.93
2022-11-09T00:52:59.510Z,8.88
2022-11-09T00:55:27.437Z,8.73
2022-11-09T00:57:55.328Z,9.23
2022-11-09T01:00:24.540Z,9.27
2022-11-09T01:02:53.752Z,9.07
2022-11-09T01:05:21.494Z,9.02
2022-11-09T01:07:49.921Z,9.32
2022-11-09T01:10:17.620Z,8.63
2022-11-09T01:12:47.274Z,8.00
2022-11-09T01:15:15.833Z,9.00
2022-11-09T01:17:43.555Z,7.90
2022-11-09T01:20:11.667Z,8.35
2022-11-09T01:22:39.320Z,9.50
2022-11-09T01:25:08.141Z,9.65
2022-11-09T01:27:36.155Z,9.93
2022-11-09T01:30:07.168Z,9.20
2022-11-09T01:32:35.064Z,9.38
2022-11-09T01:35:02.633Z,11.10
2022-11-09T01:37:31.603Z,9.38
2022-11-09T01:39:59.155Z,9.10
2022-11-09T01:42:27.043Z,9.05
2022-11-09T01:45:19.781Z,8.25
2022-11-09T01:47:52.634Z,10.27
2022-11-09T01:50:29.427Z,9.38
2022-11-09T01:52:57.110Z,10.82
2022-11-09T01:55:26.583Z,11.95
2022-11-09T01:58:05.825Z,11.32
2022-11-09T02:00:35.456Z,10.20
2022-11-09T02:03:09.110Z,9.95
2022-11-09T02:05:39.330Z,10.00
2022-11-09T02:08:07.481Z,10.68
2022-11-09T02:11:01.806Z,10.32
2022-11-09T02:13:30.948Z,9.70
2022-11-09T02:15:59.143Z,10.23
2022-11-09T02:18:27.824Z,11.05
2022-11-09T02:20:57.874Z,10.57
2022-11-09T02:23:27.435Z,10.02
2022-11-09T02:26:00.175Z,12.32
2022-11-09T02:28:28.988Z,10.88
2022-11-09T02:30:58.203Z,11.50
2022-11-09T02:33:26.738Z,11.02
2022-11-09T02:35:55.398Z,10.88
2022-11-09T02:38:23.272Z,12.00
2022-11-09T02:40:53.002Z,10.60
2022-11-09T02:43:21.309Z,11.20
2022-11-09T02:45:49.399Z,10.55
2022-11-09T02:48:17.570Z,11.57
2022-11-09T02:50:45.184Z,11.27
2022-11-09T02:53:12.823Z,10.68
2022-11-09T02:55:44.070Z,11.32
2022-11-09T02:58:12.933Z,10.57
2022-11-09T03:00:40.532Z,11.10
2022-11-09T03:03:08.347Z,11.15
2022-11-09T03:05:36.050Z,11.88
2022-11-09T03:08:03.988Z,10.38
2022-11-09T03:10:34.865Z,10.65
2022-11-09T03:13:03.023Z,9.68
2022-11-09T03:15:30.527Z,11.75
2022-11-09T03:17:58.275Z,10.85
2022-11-09T03:20:25.818Z,10.77
2022-11-09T03:22:57.915Z,11.55
2022-11-09T03:25:26.796Z,11.47
2022-11-09T03:28:02.639Z,12.68
2022-11-09T03:30:30.169Z,11.07
2022-11-09T03:33:05.572Z,11.65
2022-11-09T03:35:33.234Z,11.85
2022-11-09T03:38:01.016Z,10.80
2022-11-09T03:40:28.686Z,11.50
2022-11-09T03:42:57.293Z,10.73
2022-11-09T03:45:25.587Z,10.85
2022-11-09T03:47:54.908Z,11.18
2022-11-09T03:50:22.830Z,10.68
2022-11-09T03:52:50.382Z,10.70
2022-11-09T03:55:18.234Z,10.60
2022-11-09T03:57:46.842Z,9.93
2022-11-09T04:00:17.145Z,9.70
2022-11-09T04:02:45.172Z,10.73
2022-11-09T04:05:13.365Z,11.48
2022-11-09T04:07:47.667Z,10.27
2022-11-09T04:10:15.392Z,10.95
2022-11-09T04:12:43.012Z,11.27
2022-11-09T04:15:11.405Z,9.77
2022-11-09T04:17:39.406Z,11.13
2022-11-09T04:20:08.713Z,11.48
2022-11-09T04:22:36.367Z,10.95
2022-11-09T04:25:05.013Z,11.65
2022-11-09T04:27:32.706Z,11.15
2022-11-09T04:30:00.229Z,10.55
2022-11-09T04:32:27.882Z,9.90
2022-11-09T04:34:55.320Z,9.85
2022-11-09T04:37:22.818Z,10.75
2022-11-09T04:39:50.449Z,9.63
2022-11-09T04:42:18.022Z,10.25
2022-11-09T04:44:45.644Z,10.38
2022-11-09T04:47:13.126Z,9.88
2022-11-09T04:49:40.679Z,9.40
2022-11-09T04:52:08.301Z,9.48
2022-11-09T04:54:35.792Z,8.80
2022-11-09T04:57:04.499Z,8.88
2022-11-09T04:59:32.145Z,8.10
2022-11-09T05:01:59.930Z,8.73
2022-11-09T05:04:27.492Z,9.18
2022-11-09T05:06:55.206Z,8.77
2022-11-09T05:09:22.726Z,7.78
2022-11-09T05:11:52.085Z,7.72
2022-11-09T05:14:19.631Z,9.55
2022-11-09T05:16:47.203Z,7.55
2022-11-09T05:19:14.841Z,8.63
2022-11-09T05:21:42.670Z,10.60
2022-11-09T05:24:10.282Z,9.23
2022-11-09T05:26:40.635Z,8.27
2022-11-09T05:29:13.095Z,8.98
2022-11-09T05:31:45.409Z,8.53
2022-11-09T05:34:28.361Z,9.75
2022-11-09T05:37:00.718Z,8.27
2022-11-09T05:39:31.048Z,15.05
2022-11-09T05:41:58.748Z,9.63
2022-11-09T05:44:26.422Z,8.25
2022-11-09T05:46:54.003Z,7.68
2022-11-09T05:49:21.652Z,9.15
2022-11-09T05:51:49.290Z,10.98
2022-11-09T05:54:17.062Z,9.32
2022-11-09T05:56:44.664Z,7.63
2022-11-09T05:59:12.353Z,8.52
2022-11-09T06:01:40.098Z,8.07
2022-11-09T06:04:07.636Z,8.38
2022-11-09T06:06:35.295Z,7.65
2022-11-09T06:09:02.929Z,8.98
2022-11-09T06:11:30.710Z,7.95
2022-11-09T06:13:58.181Z,7.50
2022-11-09T06:16:25.863Z,7.63
2022-11-09T06:18:53.315Z,9.02
2022-11-09T06:21:21.054Z,8.63
2022-11-09T06:23:48.649Z,9.75
2022-11-09T06:26:16.362Z,9.80
2022-11-09T06:28:44.049Z,9.73
2022-11-09T06:31:17.148Z,9.75
2022-11-09T06:33:44.725Z,9.95
2022-11-09T06:36:13.354Z,9.15
2022-11-09T06:38:41.339Z,10.18
2022-11-09T06:41:10.896Z,11.65
2022-11-09T06:43:38.632Z,10.95
2022-11-09T06:46:06.656Z,10.70
2022-11-09T06:48:34.344Z,10.93
2022-11-09T06:51:03.267Z,11.63
2022-11-09T06:53:32.720Z,13.13
2022-11-09T06:56:02.102Z,11.50
2022-11-09T06:58:30.013Z,11.98
2022-11-09T07:00:58.122Z,11.43
2022-11-09T07:03:26.048Z,14.15
2022-11-09T07:05:53.774Z,12.07
2022-11-09T07:08:21.472Z,10.93
2022-11-09T07:10:49.218Z,12.05
2022-11-09T07:13:16.832Z,12.73
2022-11-09T07:15:44.520Z,11.38
2022-11-09T07:18:13.307Z,12.93
2022-11-09T07:20:40.978Z,12.73
2022-11-09T07:23:08.816Z,12.82
2022-11-09T07:25:36.571Z,12.25
2022-11-09T07:28:07.690Z,12.70
2022-11-09T07:30:37.072Z,13.00
2022-11-09T07:33:12.875Z,12.23
2022-11-09T07:35:40.770Z,13.15
2022-11-09T07:38:08.522Z,11.95
2022-11-09T07:40:36.686Z,12.23
2022-11-09T07:43:06.105Z,12.38
2022-11-09T07:45:35.356Z,12.93
2022-11-09T07:48:06.881Z,14.25
2022-11-09T07:50:35.286Z,14.20
2022-11-09T07:53:03.599Z,12.73
2022-11-09T07:55:31.671Z,13.75
2022-11-09T07:58:01.631Z,14.02
2022-11-09T08:00:31.602Z,15.68
2022-11-09T08:02:59.325Z,15.35
2022-11-09T08:05:27.351Z,14.38
2022-11-09T08:07:59.779Z,15.68
2022-11-09T08:10:28.957Z,13.40
2022-11-09T08:12:59.189Z,14.85
2022-11-09T08:15:27.356Z,14.38
2022-11-09T08:17:58.428Z,15.85
2022-11-09T08:20:25.899Z,13.75
2022-11-09T08:22:53.505Z,13.57
2022-11-09T08:25:21.064Z,15.45
2022-11-09T08:27:48.737Z,14.30
2022-11-09T08:30:21.111Z,14.20
2022-11-09T08:32:49.397Z,15.30
2022-11-09T08:35:20.824Z,15.27
2022-11-09T08:37:50.818Z,15.88
2022-11-09T08:40:24.417Z,16.83
2022-11-09T08:42:52.930Z,17.63
2022-11-09T08:45:20.994Z,17.38
2022-11-09T08:47:48.997Z,18.38
2022-11-09T08:50:17.338Z,17.67
2022-11-09T08:52:44.872Z,17.08
2022-11-09T08:55:12.504Z,17.25
2022-11-09T08:57:40.035Z,16.58
2022-11-09T09:00:08.637Z,17.67
2022-11-09T09:02:36.170Z,16.63
2022-11-09T09:05:04.282Z,18.20
2022-11-09T09:07:31.844Z,17.73
2022-11-09T09:09:59.385Z,17.60
2022-11-09T09:12:27.201Z,17.60
2022-11-09T09:14:55.330Z,17.13
2022-11-09T09:17:22.845Z,17.38
2022-11-09T09:19:50.447Z,18.88
2022-11-09T09:22:18.567Z,17.83
2022-11-09T09:24:46.717Z,17.35
2022-11-09T09:27:14.434Z,17.42
2022-11-09T09:29:42.087Z,17.73
2022-11-09T09:32:09.720Z,18.25
2022-11-09T09:34:37.261Z,17.55
2022-11-09T09:37:04.809Z,18.30
2022-11-09T09:39:32.517Z,18.42
2022-11-09T09:42:04.956Z,19.67
2022-11-09T09:44:37.121Z,21.20
2022-11-09T09:47:19.401Z,20.75
2022-11-09T09:49:56.946Z,19.42
2022-11-09T09:52:39.730Z,18.98
2022-11-09T09:55:13.860Z,20.00
2022-11-09T09:57:45.816Z,20.55
2022-11-09T10:00:24.992Z,21.63
2022-11-09T10:02:53.821Z,19.70
2022-11-09T10:05:39.871Z,18.58
2022-11-09T10:08:16.284Z,19.65
2022-11-09T10:11:04.904Z,21.23
2022-11-09T10:13:50.899Z,21.05
2022-11-09T10:16:30.069Z,20.73
2022-11-09T10:19:25.072Z,20.75
2022-11-09T10:22:03.497Z,20.35
2022-11-09T10:25:12.881Z,21.13
2022-11-09T10:27:42.692Z,21.20
2022-11-09T10:30:16.763Z,23.95
2022-11-09T10:32:48.927Z,23.35
2022-11-09T10:35:26.309Z,21.88
2022-11-09T10:37:55.095Z,22.70
2022-11-09T10:40:53.535Z,22.98
2022-11-09T10:43:39.675Z,24.38
2022-11-09T10:46:25.799Z,23.52
2022-11-09T10:49:21.127Z,21.98
2022-11-09T10:52:44.288Z,27.55
2022-11-09T10:55:36.881Z,25.15
2022-11-09T10:58:34.559Z,24.10
2022-11-09T11:01:23.086Z,22.73
2022-11-09T11:04:24.275Z,24.58
2022-11-09T11:07:21.780Z,24.98
2022-11-09T11:10:17.148Z,22.67
2022-11-09T11:13:06.184Z,24.38
2022-11-09T11:15:52.708Z,25.35
2022-11-09T11:18:48.579Z,23.75
2022-11-09T11:21:34.800Z,25.63
2022-11-09T11:24:21.399Z,23.60
2022-11-09T11:27:33.203Z,24.70
2022-11-09T11:30:29.113Z,24.35
2022-11-09T11:33:18.962Z,24.33
2022-11-09T11:36:13.498Z,25.75
2022-11-09T11:39:05.611Z,23.33
2022-11-09T11:42:16.405Z,23.10
2022-11-09T11:45:42.491Z,22.90
2022-11-09T11:48:38.782Z,22.00
2022-11-09T11:51:40.445Z,21.70
2022-11-09T11:55:07.377Z,21.27
2022-11-09T11:58:08.398Z,20.20
2022-11-09T12:00:54.443Z,21.63
2022-11-09T12:03:52.105Z,22.60
2022-11-09T12:06:44.263Z,23.70
2022-11-09T12:09:45.629Z,22.65
2022-11-09T12:12:34.645Z,23.70
2022-11-09T12:16:14.113Z,23.52
2022-11-09T12:19:11.966Z,22.75
2022-11-09T12:22:03.250Z,22.60
2022-11-09T12:24:55.394Z,22.42
2022-11-09T12:28:05.880Z,22.98
2022-11-09T12:31:24.923Z,23.73
2022-11-09T12:35:00.443Z,22.58
2022-11-09T12:38:15.265Z,22.55
2022-11-09T12:41:08.576Z,23.20
2022-11-09T12:44:17.118Z,22.27
2022-11-09T12:47:06.674Z,26.00
2022-11-09T12:49:56.040Z,24.75
2022-11-09T12:52:44.499Z,23.58
2022-11-09T12:55:52.293Z,23.52
2022-11-09T12:58:39.655Z,25.50
2022-11-09T13:01:35.263Z,24.77
2022-11-09T13:04:23.271Z,24.25
2022-11-09T13:07:16.717Z,24.63
2022-11-09T13:10:04.105Z,24.23
2022-11-09T13:12:50.086Z,24.77
2022-11-09T13:15:38.044Z,24.70
2022-11-09T13:18:27.167Z,25.60
2022-11-09T13:21:22.153Z,25.13
2022-11-09T13:24:31.872Z,25.20
2022-11-09T13:27:33.402Z,24.83
2022-11-09T13:30:25.424Z,26.13
2022-11-09T13:33:27.080Z,23.83
2022-11-09T13:36:18.920Z,22.25
2022-11-09T13:39:27.055Z,21.80
2022-11-09T13:42:33.403Z,21.70
2022-11-09T13:45:38.134Z,19.60
2022-11-09T13:48:48.624Z,19.25
2022-11-09T13:51:46.274Z,18.42
2022-11-09T13:54:35.179Z,17.88
2022-11-09T13:57:23.899Z,16.75
2022-11-09T14:00:25.294Z,16.50
2022-11-09T14:03:24.807Z,18.63
2022-11-09T14:06:13.379Z,17.55
2022-11-09T14:09:00.910Z,18.63
2022-11-09T14:12:12.505Z,17.48
2022-11-09T14:15:31.016Z,18.42
2022-11-09T14:18:39.054Z,21.02
2022-11-09T14:21:40.674Z,21.30
2022-11-09T14:24:37.399Z,19.60
2022-11-09T14:27:23.851Z,19.98
2022-11-09T14:30:22.613Z,18.95
2022-11-09T14:33:22.374Z,17.85
2022-11-09T14:36:13.061Z,19.40
2022-11-09T14:39:04.993Z,19.13
2022-11-09T14:41:51.863Z,18.50
2022-11-09T14:44:43.887Z,17.20
2022-11-09T14:47:35.427Z,16.55
2022-11-09T14:50:24.204Z,17.42
2022-11-09T14:53:35.703Z,17.75
2022-11-09T14:56:22.400Z,16.90
2022-11-09T14:59:15.103Z,17.55
2022-11-09T15:02:08.006Z,17.15
2022-11-09T15:04:59.086Z,16.58
2022-11-09T15:07:47.770Z,18.48
2022-11-09T15:10:34.583Z,17.40
2022-11-09T15:13:39.252Z,17.67
2022-11-09T15:16:29.709Z,16.90
2022-11-09T15:19:32.282Z,17.13
2022-11-09T15:22:37.611Z,17.63
2022-11-09T15:25:41.964Z,16.42
2022-11-09T15:28:29.321Z,17.63
2022-11-09T15:31:18.833Z,15.73
2022-11-09T15:34:26.846Z,17.20
2022-11-09T15:37:49.985Z,16.52
2022-11-09T15:40:36.028Z,15.45
2022-11-09T15:43:22.011Z,15.63
2022-11-09T15:46:08.264Z,14.32
2022-11-09T15:48:59.190Z,14.65
2022-11-09T15:51:46.069Z,13.70
2022-11-09T15:54:33.459Z,12.40
2022-11-09T15:57:20.124Z,15.10
2022-11-09T16:00:12.617Z,12.85
2022-11-09T16:03:00.529Z,14.70
2022-11-09T16:05:46.542Z,14.10
2022-11-09T16:08:32.675Z,14.48
2022-11-09T16:11:18.506Z,18.92
2022-11-09T16:14:04.947Z,14.88
2022-11-09T16:16:51.153Z,13.30
2022-11-09T16:19:39.605Z,13.55
2022-11-09T16:22:30.636Z,12.88
2022-11-09T16:25:16.648Z,13.82
2022-11-09T16:28:02.924Z,12.25
2022-11-09T16:30:48.679Z,11.63
2022-11-09T16:33:36.011Z,13.13
2022-11-09T16:36:24.388Z,11.88
2022-11-09T16:39:17.169Z,10.45
2022-11-09T16:42:07.946Z,10.83
2022-11-09T16:44:59.035Z,13.35
2022-11-09T16:47:48.679Z,13.45
2022-11-09T16:50:35.146Z,12.77
2022-11-09T16:53:26.742Z,13.15
2022-11-09T16:56:13.641Z,12.13
2022-11-09T16:59:00.600Z,12.75
2022-11-09T17:01:59.740Z,12.18
2022-11-09T17:04:45.867Z,11.60
2022-11-09T17:07:42.057Z,11.73
2022-11-09T17:10:29.051Z,13.18
2022-11-09T17:13:15.572Z,13.32
2022-11-09T17:16:05.648Z,12.80
2022-11-09T17:18:56.441Z,13.48
2022-11-09T17:21:42.482Z,13.88
2022-11-09T17:24:29.532Z,13.88
2022-11-09T17:27:16.250Z,13.45
2022-11-09T17:30:02.284Z,14.00
2022-11-09T17:32:48.722Z,13.07
2022-11-09T17:35:36.831Z,13.57
2022-11-09T17:38:23.073Z,13.60
2022-11-09T17:41:13.838Z,13.25
2022-11-09T17:44:03.581Z,13.75
2022-11-09T17:46:49.786Z,13.40
2022-11-09T17:49:36.057Z,12.38
2022-11-09T17:52:22.052Z,12.50
2022-11-09T17:55:08.442Z,12.68
2022-11-09T17:57:54.630Z,12.98
2022-11-09T18:00:40.797Z,12.48
2022-11-09T18:03:27.210Z,12.95
2022-11-09T18:06:17.214Z,14.63
2022-11-09T18:09:39.250Z,13.48
2022-11-09T18:12:10.423Z,13.30
2022-11-09T18:14:56.420Z,12.75
2022-11-09T18:17:42.338Z,12.95
2022-11-09T18:20:28.876Z,13.32
2022-11-09T18:23:16.350Z,14.20
2022-11-09T18:26:03.172Z,14.77
2022-11-09T18:28:49.634Z,16.33
2022-11-09T18:31:36.259Z,21.17
2022-11-09T18:34:22.540Z,18.65
2022-11-09T18:37:09.095Z,17.90
2022-11-09T18:39:55.667Z,16.35
2022-11-09T18:42:42.498Z,15.18
2022-11-09T18:45:29.735Z,15.73
2022-11-09T18:48:15.914Z,16.40
2022-11-09T18:51:02.338Z,16.58
2022-11-09T18:53:49.320Z,14.90
2022-11-09T18:56:35.772Z,16.45
2022-11-09T18:59:22.353Z,16.45
2022-11-09T19:02:13.766Z,16.02
2022-11-09T19:04:59.771Z,14.75
2022-11-09T19:07:45.710Z,14.60
2022-11-09T19:10:31.680Z,14.40
2022-11-09T19:13:18.133Z,15.32
2022-11-09T19:16:07.459Z,13.00
2022-11-09T19:18:53.965Z,13.70
2022-11-09T19:21:51.717Z,14.98
2022-11-09T19:24:37.873Z,13.93
2022-11-09T19:27:25.263Z,30.17
2022-11-09T19:30:12.206Z,16.15
2022-11-09T19:32:58.676Z,14.75
2022-11-09T19:35:52.745Z,14.70
2022-11-09T19:38:49.194Z,13.95
2022-11-09T19:41:35.924Z,15.43
2022-11-09T19:44:22.420Z,15.57
2022-11-09T19:47:09.101Z,19.08
2022-11-09T19:49:57.902Z,19.33
2022-11-09T19:52:43.981Z,15.00
2022-11-09T19:55:30.549Z,17.02
2022-11-09T19:58:17.261Z,15.65
2022-11-09T20:01:10.172Z,18.08
2022-11-09T20:03:58.978Z,17.90
2022-11-09T20:06:45.584Z,18.40
2022-11-09T20:09:32.697Z,17.83
2022-11-09T20:12:37.120Z,16.80
2022-11-09T20:15:24.057Z,16.52
2022-11-09T20:18:10.571Z,15.40
2022-11-09T20:20:57.308Z,15.70
2022-11-09T20:23:43.606Z,16.67
2022-11-09T20:26:31.417Z,17.30
2022-11-09T20:29:19.002Z,16.98
2022-11-09T20:32:06.867Z,17.27
2022-11-09T20:34:55.015Z,16.20
2022-11-09T20:37:41.085Z,16.70
2022-11-09T20:40:27.157Z,15.90
2022-11-09T20:43:13.858Z,17.15
2022-11-09T20:46:08.899Z,15.55
2022-11-09T20:48:55.897Z,15.88
2022-11-09T20:51:42.423Z,15.68
2022-11-09T20:54:29.974Z,15.95
2022-11-09T20:57:21.592Z,15.00
2022-11-09T21:00:09.054Z,14.32
2022-11-09T21:02:55.772Z,13.85
2022-11-09T21:05:46.648Z,14.88
2022-11-09T21:08:37.372Z,14.27
2022-11-09T21:11:24.413Z,14.65
2022-11-09T21:14:13.314Z,16.05
2022-11-09T21:16:59.914Z,15.70
2022-11-09T21:20:00.259Z,13.82
2022-11-09T21:26:28.180Z,13.35
2022-11-09T21:29:36.302Z,14.18
2022-11-09T21:32:23.732Z,14.70
2022-11-09T21:35:09.814Z,15.25
2022-11-09T21:37:59.009Z,13.82
2022-11-09T21:40:45.131Z,14.43
2022-11-09T21:43:31.653Z,18.40
2022-11-09T21:46:17.628Z,14.70
2022-11-09T21:49:05.923Z,28.92
2022-11-09T21:51:52.807Z,16.10
2022-11-09T21:54:39.145Z,15.48
2022-11-09T21:57:25.536Z,15.02
2022-11-09T22:00:12.384Z,15.05
2022-11-09T22:02:58.852Z,13.40
2022-11-09T22:05:44.535Z,14.63
2022-11-09T22:08:31.209Z,14.02
2022-11-09T22:11:20.225Z,15.43
2022-11-09T22:14:25.476Z,14.75
2022-11-09T22:17:12.673Z,14.73
2022-11-09T22:20:17.098Z,15.02
2022-11-09T22:23:08.283Z,17.23
2022-11-09T22:25:54.786Z,18.02
2022-11-09T22:28:41.163Z,20.48
2022-11-09T22:31:27.661Z,19.83
2022-11-09T22:34:13.811Z,18.70
2022-11-09T22:36:59.976Z,19.80
2022-11-09T22:39:47.626Z,18.25
2022-11-09T22:42:34.100Z,18.95
2022-11-09T22:45:20.403Z,19.23
2022-11-09T22:48:06.788Z,19.55
2022-11-09T22:50:53.129Z,17.95
2022-11-09T22:53:39.075Z,19.50
2022-11-09T22:56:25.624Z,20.05
2022-11-09T22:59:12.238Z,19.08
2022-11-09T23:01:58.684Z,18.42
2022-11-09T23:04:45.295Z,18.08
2022-11-09T23:07:31.714Z,20.13
2022-11-09T23:10:17.950Z,18.55
2022-11-09T23:13:05.203Z,18.27
2022-11-09T23:15:59.673Z,18.70
2022-11-09T23:18:56.906Z,19.13
2022-11-09T23:21:43.105Z,19.42
2022-11-09T23:24:47.874Z,18.52
2022-11-09T23:27:34.286Z,18.63
2022-11-09T23:30:21.741Z,19.75
2022-11-09T23:33:08.730Z,18.83
2022-11-09T23:35:55.775Z,18.15
2022-11-09T23:38:42.085Z,17.90
2022-11-09T23:41:28.376Z,18.80
2022-11-09T23:44:14.741Z,17.73
2022-11-09T23:47:00.649Z,18.55
2022-11-09T23:49:46.455Z,18.20
2022-11-09T23:52:32.695Z,18.23
2022-11-09T23:55:19.144Z,17.02
2022-11-09T23:58:06.749Z,18.10
